createdAt,value
2023-03-02T00:01:08.340Z,87.84
2023-03-02T00:03:38.901Z,88.83
2023-03-02T00:06:10.029Z,88.31
2023-03-02T00:08:39.208Z,89.04
2023-03-02T00:11:06.890Z,89.36
2023-03-02T00:13:36.562Z,89.39
2023-03-02T00:16:04.398Z,89.74
2023-03-02T00:18:32.299Z,89.92
2023-03-02T00:21:00.113Z,89.68
2023-03-02T00:23:29.068Z,89.93
2023-03-02T00:25:56.695Z,89.93
2023-03-02T00:28:24.394Z,89.95
2023-03-02T00:30:52.237Z,90.47
2023-03-02T00:33:19.866Z,90.37
2023-03-02T00:35:47.999Z,89.92
2023-03-02T00:38:15.979Z,89.84
2023-03-02T00:40:50.030Z,90.50
2023-03-02T00:43:18.674Z,89.96
2023-03-02T00:45:46.434Z,90.14
2023-03-02T00:48:14.039Z,90.71
2023-03-02T00:50:41.929Z,89.96
2023-03-02T00:53:10.033Z,90.07
2023-03-02T00:55:38.427Z,90.30
2023-03-02T00:58:08.041Z,90.32
2023-03-02T01:00:35.789Z,90.11
2023-03-02T01:03:06.684Z,90.26
2023-03-02T01:05:37.449Z,90.92
2023-03-02T01:08:05.747Z,90.46
2023-03-02T01:10:33.518Z,90.57
2023-03-02T01:13:01.180Z,91.11
2023-03-02T01:15:30.740Z,91.06
2023-03-02T01:18:00.111Z,90.94
2023-03-02T01:20:28.199Z,91.35
2023-03-02T01:22:56.512Z,90.93
2023-03-02T01:25:24.290Z,91.01
2023-03-02T01:27:51.939Z,91.17
2023-03-02T01:30:19.832Z,92.00
2023-03-02T01:32:48.834Z,92.11
2023-03-02T01:35:16.615Z,91.56
2023-03-02T01:37:44.231Z,91.58
2023-03-02T01:40:14.690Z,91.09
2023-03-02T01:42:52.913Z,91.49
2023-03-02T01:45:51.731Z,91.66
2023-03-02T01:48:30.731Z,92.10
2023-03-02T01:50:59.706Z,92.02
2023-03-02T01:53:30.536Z,92.23
2023-03-02T01:56:01.740Z,92.11
2023-03-02T01:58:35.458Z,92.47
2023-03-02T02:01:03.973Z,92.62
2023-03-02T02:03:33.335Z,92.44
2023-03-02T02:06:10.808Z,92.48
2023-03-02T02:08:40.788Z,92.96
2023-03-02T02:11:08.552Z,92.59
2023-03-02T02:13:36.264Z,93.41
2023-03-02T02:16:04.740Z,92.86
2023-03-02T02:18:34.824Z,93.22
2023-03-02T02:21:03.127Z,92.96
2023-03-02T02:23:38.039Z,93.71
2023-03-02T02:26:11.256Z,93.54
2023-03-02T02:28:43.387Z,94.04
2023-03-02T02:31:17.109Z,94.23
2023-03-02T02:33:50.463Z,94.14
2023-03-02T02:36:22.015Z,94.08
2023-03-02T02:38:54.279Z,94.49
2023-03-02T02:41:28.383Z,94.38
2023-03-02T02:43:57.233Z,94.66
2023-03-02T02:46:26.553Z,94.67
2023-03-02T02:48:54.821Z,94.57
2023-03-02T02:51:26.452Z,94.44
2023-03-02T02:53:58.726Z,94.90
2023-03-02T02:56:34.023Z,94.91
2023-03-02T02:59:07.354Z,95.15
2023-03-02T03:01:35.513Z,94.85
2023-03-02T03:04:06.334Z,95.32
2023-03-02T03:06:42.158Z,95.08
2023-03-02T03:09:11.742Z,95.22
2023-03-02T03:11:47.883Z,95.50
2023-03-02T03:14:18.203Z,95.87
2023-03-02T03:16:50.962Z,95.87
2023-03-02T03:19:25.062Z,95.57
2023-03-02T03:21:55.874Z,96.11
2023-03-02T03:24:26.666Z,96.05
2023-03-02T03:26:56.944Z,95.91
2023-03-02T03:29:27.016Z,96.37
2023-03-02T03:32:00.558Z,96.51
2023-03-02T03:34:30.235Z,96.71
2023-03-02T03:37:01.752Z,96.57
2023-03-02T03:39:32.304Z,96.98
2023-03-02T03:42:01.516Z,96.76
2023-03-02T03:44:29.971Z,96.98
2023-03-02T03:46:57.819Z,97.18
2023-03-02T03:49:25.670Z,97.03
2023-03-02T03:51:53.625Z,97.04
2023-03-02T03:54:21.422Z,97.20
2023-03-02T03:56:51.017Z,97.87
2023-03-02T03:59:22.550Z,97.83
2023-03-02T04:02:03.027Z,97.91
2023-03-02T04:04:37.036Z,98.51
2023-03-02T04:07:09.737Z,98.56
2023-03-02T04:09:39.189Z,98.78
2023-03-02T04:12:11.515Z,99.32
2023-03-02T04:14:48.749Z,99.45
2023-03-02T04:17:16.815Z,99.17
2023-03-02T04:19:47.117Z,99.08
2023-03-02T04:22:16.285Z,99.39
2023-03-02T04:24:44.008Z,99.04
2023-03-02T04:27:12.355Z,99.38
2023-03-02T04:29:40.341Z,99.41
2023-03-02T04:32:10.730Z,99.27
2023-03-02T04:34:39.894Z,99.49
2023-03-02T04:37:07.689Z,99.63
2023-03-02T04:39:35.326Z,99.62
2023-03-02T04:42:03.118Z,99.86
2023-03-02T04:44:30.822Z,99.46
2023-03-02T04:46:58.681Z,99.64
2023-03-02T04:49:27.755Z,99.49
2023-03-02T04:51:55.440Z,99.85
2023-03-02T04:54:25.590Z,99.47
2023-03-02T04:56:53.723Z,100.00
2023-03-02T04:59:24.020Z,99.81
2023-03-02T05:01:51.660Z,100.00
2023-03-02T05:04:20.015Z,99.94
2023-03-02T05:06:49.070Z,100.00
2023-03-02T05:09:16.721Z,100.00
2023-03-02T05:11:44.382Z,100.00
2023-03-02T05:14:14.092Z,100.00
2023-03-02T05:16:43.017Z,100.00
2023-03-02T05:19:13.468Z,100.00
2023-03-02T05:21:41.497Z,100.00
2023-03-02T05:24:10.983Z,100.00
2023-03-02T05:26:39.027Z,100.00
2023-03-02T05:29:07.027Z,100.00
2023-03-02T05:31:37.617Z,100.00
2023-03-02T05:34:07.390Z,100.00
2023-03-02T05:36:36.443Z,100.00
2023-03-02T05:39:05.122Z,100.00
2023-03-02T05:41:34.281Z,100.00
2023-03-02T05:44:01.996Z,100.00
2023-03-02T05:46:29.829Z,100.00
2023-03-02T05:48:57.635Z,100.00
2023-03-02T05:51:25.358Z,100.00
2023-03-02T05:53:52.997Z,100.00
2023-03-02T05:56:22.353Z,100.00
2023-03-02T05:58:51.344Z,100.00
2023-03-02T06:01:19.014Z,100.00
2023-03-02T06:03:47.894Z,100.00
2023-03-02T06:06:15.551Z,100.00
2023-03-02T06:08:43.802Z,100.00
2023-03-02T06:11:12.497Z,100.00
2023-03-02T06:13:40.594Z,100.00
2023-03-02T06:16:10.432Z,100.00
2023-03-02T06:18:41.475Z,100.00
2023-03-02T06:21:10.713Z,100.00
2023-03-02T06:23:38.746Z,100.00
2023-03-02T06:26:09.915Z,100.00
2023-03-02T06:28:51.476Z,100.00
2023-03-02T06:31:23.300Z,100.00
2023-03-02T06:33:51.081Z,100.00
2023-03-02T06:36:18.802Z,100.00
2023-03-02T06:38:46.570Z,100.00
2023-03-02T06:41:14.280Z,100.00
2023-03-02T06:43:42.094Z,100.00
2023-03-02T06:46:10.056Z,100.00
2023-03-02T06:48:39.275Z,100.00
2023-03-02T06:51:07.692Z,100.00
2023-03-02T06:53:35.342Z,100.00
2023-03-02T06:56:02.960Z,100.00
2023-03-02T06:58:30.731Z,100.00
2023-03-02T07:00:58.509Z,100.00
2023-03-02T07:03:26.348Z,100.00
2023-03-02T07:05:56.563Z,100.00
2023-03-02T07:08:24.857Z,100.00
2023-03-02T07:10:52.683Z,100.00
2023-03-02T07:13:21.486Z,100.00
2023-03-02T07:15:49.730Z,100.00
2023-03-02T07:18:17.639Z,100.00
2023-03-02T07:20:45.385Z,100.00
2023-03-02T07:23:14.663Z,100.00
2023-03-02T07:25:43.447Z,100.00
2023-03-02T07:28:11.804Z,100.00
2023-03-02T07:30:39.518Z,100.00
2023-03-02T07:33:07.234Z,100.00
2023-03-02T07:35:36.066Z,100.00
2023-03-02T07:38:03.757Z,100.00
2023-03-02T07:40:33.910Z,100.00
2023-03-02T07:43:01.615Z,100.00
2023-03-02T07:45:29.215Z,100.00
2023-03-02T07:47:57.718Z,100.00
2023-03-02T07:50:25.569Z,100.00
2023-03-02T07:52:53.292Z,100.00
2023-03-02T07:55:21.023Z,100.00
2023-03-02T07:57:50.076Z,100.00
2023-03-02T08:00:18.796Z,100.00
2023-03-02T08:02:46.522Z,100.00
2023-03-02T08:05:14.456Z,100.00
2023-03-02T08:07:42.698Z,100.00
2023-03-02T08:10:12.188Z,100.00
2023-03-02T08:12:39.825Z,100.00
2023-03-02T08:15:10.380Z,100.00
2023-03-02T08:17:38.025Z,100.00
2023-03-02T08:20:06.553Z,100.00
2023-03-02T08:22:34.202Z,100.00
2023-03-02T08:25:01.832Z,100.00
2023-03-02T08:27:29.538Z,100.00
2023-03-02T08:29:57.715Z,100.00
2023-03-02T08:32:26.703Z,100.00
2023-03-02T08:34:54.553Z,100.00
2023-03-02T08:37:22.255Z,100.00
2023-03-02T08:39:50.503Z,100.00
2023-03-02T08:42:22.792Z,100.00
2023-03-02T08:44:50.435Z,100.00
2023-03-02T08:47:18.074Z,100.00
2023-03-02T08:49:48.283Z,100.00
2023-03-02T08:52:16.302Z,100.00
2023-03-02T08:54:43.930Z,100.00
2023-03-02T08:57:12.470Z,100.00
2023-03-02T08:59:40.347Z,100.00
2023-03-02T09:02:08.233Z,100.00
2023-03-02T09:04:36.069Z,100.00
2023-03-02T09:07:05.116Z,100.00
2023-03-02T09:09:32.720Z,100.00
2023-03-02T09:12:00.302Z,100.00
2023-03-02T09:14:28.336Z,100.00
2023-03-02T09:16:56.016Z,100.00
2023-03-02T09:19:23.782Z,100.00
2023-03-02T09:21:51.448Z,100.00
2023-03-02T09:24:20.448Z,100.00
2023-03-02T09:26:48.091Z,100.00
2023-03-02T09:29:15.741Z,100.00
2023-03-02T09:31:43.699Z,100.00
2023-03-02T09:34:11.405Z,100.00
2023-03-02T09:36:39.071Z,100.00
2023-03-02T09:39:12.281Z,100.00
2023-03-02T09:42:09.430Z,100.00
2023-03-02T09:44:50.043Z,100.00
2023-03-02T09:47:34.815Z,100.00
2023-03-02T09:50:12.512Z,100.00
2023-03-02T09:52:47.236Z,100.00
2023-03-02T09:55:17.359Z,100.00
2023-03-02T09:57:46.922Z,100.00
2023-03-02T10:00:19.909Z,100.00
2023-03-02T10:02:50.111Z,100.00
2023-03-02T10:05:21.291Z,100.00
2023-03-02T10:07:49.376Z,100.00
2023-03-02T10:10:26.621Z,100.00
2023-03-02T10:13:17.847Z,100.00
2023-03-02T10:15:56.854Z,100.00
2023-03-02T10:18:29.323Z,100.00
2023-03-02T10:21:01.652Z,100.00
2023-03-02T10:23:42.283Z,100.00
2023-03-02T10:26:23.508Z,100.00
2023-03-02T10:28:58.997Z,100.00
2023-03-02T10:31:29.727Z,100.00
2023-03-02T10:33:58.005Z,100.00
2023-03-02T10:36:27.773Z,100.00
2023-03-02T10:38:57.559Z,100.00
2023-03-02T10:41:30.212Z,100.00
2023-03-02T10:44:04.522Z,100.00
2023-03-02T10:46:42.093Z,100.00
2023-03-02T10:49:26.507Z,100.00
2023-03-02T10:51:59.778Z,100.00
2023-03-02T10:54:28.944Z,100.00
2023-03-02T10:56:59.689Z,100.00
2023-03-02T10:59:43.188Z,100.00
2023-03-02T11:02:18.184Z,100.00
2023-03-02T11:04:46.309Z,100.00
2023-03-02T11:07:17.784Z,100.00
2023-03-02T11:09:45.584Z,100.00
2023-03-02T11:12:16.794Z,100.00
2023-03-02T11:14:45.796Z,100.00
2023-03-02T11:17:30.907Z,100.00
2023-03-02T11:19:58.765Z,100.00
2023-03-02T11:22:37.846Z,99.84
2023-03-02T11:25:12.739Z,99.95
2023-03-02T11:27:42.397Z,99.96
2023-03-02T11:30:16.974Z,99.39
2023-03-02T11:32:52.434Z,98.72
2023-03-02T11:35:29.777Z,98.48
2023-03-02T11:38:03.613Z,98.67
2023-03-02T11:40:35.089Z,98.30
2023-03-02T11:43:05.566Z,98.24
2023-03-02T11:45:38.041Z,97.69
2023-03-02T11:48:09.890Z,97.15
2023-03-02T11:50:44.596Z,95.78
2023-03-02T11:53:17.131Z,96.60
2023-03-02T11:55:48.732Z,96.59
2023-03-02T11:58:19.386Z,94.72
2023-03-02T12:00:49.860Z,96.77
2023-03-02T12:03:22.874Z,96.61
2023-03-02T12:06:03.022Z,96.24
2023-03-02T12:08:38.791Z,96.25
2023-03-02T12:11:08.745Z,96.05
2023-03-02T12:13:38.704Z,94.38
2023-03-02T12:16:20.541Z,95.41
2023-03-02T12:18:49.943Z,95.34
2023-03-02T12:21:19.728Z,94.76
2023-03-02T12:24:04.035Z,94.17
2023-03-02T12:26:36.015Z,93.67
2023-03-02T12:29:08.537Z,93.34
2023-03-02T12:31:46.501Z,93.49
2023-03-02T12:34:34.954Z,93.50
2023-03-02T12:37:09.149Z,92.90
2023-03-02T12:40:18.162Z,92.67
2023-03-02T12:42:59.758Z,91.88
2023-03-02T12:45:42.320Z,92.65
2023-03-02T12:48:29.303Z,92.45
2023-03-02T12:51:01.806Z,93.14
2023-03-02T12:53:30.209Z,91.56
2023-03-02T12:55:58.513Z,91.13
2023-03-02T12:58:28.617Z,89.58
2023-03-02T13:00:59.135Z,90.45
2023-03-02T13:03:30.050Z,90.38
2023-03-02T13:06:05.317Z,90.86
2023-03-02T13:08:33.341Z,90.34
2023-03-02T13:11:03.036Z,90.79
2023-03-02T13:13:37.855Z,90.11
2023-03-02T13:16:08.240Z,90.16
2023-03-02T13:18:39.649Z,89.28
2023-03-02T13:21:07.821Z,89.54
2023-03-02T13:23:35.530Z,90.05
2023-03-02T13:26:05.769Z,88.35
2023-03-02T13:28:36.687Z,88.30
2023-03-02T13:31:07.059Z,88.84
2023-03-02T13:33:44.214Z,87.79
2023-03-02T13:36:19.436Z,88.61
2023-03-02T13:38:50.709Z,88.92
2023-03-02T13:41:23.826Z,88.58
2023-03-02T13:43:51.734Z,89.93
2023-03-02T13:46:28.699Z,89.72
2023-03-02T13:49:09.587Z,89.56
2023-03-02T13:51:41.396Z,89.83
2023-03-02T13:54:20.550Z,89.68
2023-03-02T13:56:48.589Z,88.96
2023-03-02T13:59:23.460Z,89.57
2023-03-02T14:01:54.821Z,88.51
2023-03-02T14:04:31.134Z,88.74
2023-03-02T14:06:59.227Z,88.29
2023-03-02T14:09:31.979Z,88.77
2023-03-02T14:12:02.387Z,88.60
2023-03-02T14:14:36.144Z,88.74
2023-03-02T14:17:14.360Z,88.48
2023-03-02T14:19:45.218Z,88.74
2023-03-02T14:22:20.066Z,89.47
2023-03-02T14:24:56.336Z,88.45
2023-03-02T14:27:34.052Z,89.60
2023-03-02T14:30:01.998Z,90.08
2023-03-02T14:32:31.448Z,89.88
2023-03-02T14:35:00.876Z,88.78
2023-03-02T14:37:30.293Z,88.77
2023-03-02T14:39:58.590Z,89.79
2023-03-02T14:42:26.978Z,89.68
2023-03-02T14:45:00.010Z,89.21
2023-03-02T14:47:32.622Z,88.63
2023-03-02T14:50:05.377Z,88.93
2023-03-02T14:52:38.811Z,88.28
2023-03-02T14:55:13.767Z,88.57
2023-03-02T14:57:43.895Z,88.35
2023-03-02T15:00:15.350Z,88.61
2023-03-02T15:02:43.378Z,88.05
2023-03-02T15:05:12.463Z,88.28
2023-03-02T15:07:40.902Z,88.46
2023-03-02T15:10:09.891Z,88.41
2023-03-02T15:12:37.872Z,89.00
2023-03-02T15:15:06.316Z,87.91
2023-03-02T15:17:34.012Z,89.02
2023-03-02T15:20:02.110Z,89.09
2023-03-02T15:22:31.289Z,90.10
2023-03-02T15:24:59.016Z,90.36
2023-03-02T15:27:26.846Z,90.45
2023-03-02T15:29:56.699Z,91.37
2023-03-02T15:32:24.862Z,91.69
2023-03-02T15:34:52.496Z,91.60
2023-03-02T15:37:20.131Z,92.02
2023-03-02T15:39:54.420Z,92.37
2023-03-02T15:42:22.142Z,93.11
2023-03-02T15:44:50.141Z,93.49
2023-03-02T15:47:18.105Z,94.58
2023-03-02T15:49:45.739Z,94.25
2023-03-02T15:52:13.744Z,94.13
2023-03-02T15:54:42.066Z,94.38
2023-03-02T15:57:11.666Z,94.79
2023-03-02T15:59:39.393Z,94.86
2023-03-02T16:02:07.016Z,95.97
2023-03-02T16:04:34.958Z,95.24
2023-03-02T16:07:02.599Z,95.90
2023-03-02T16:09:30.990Z,96.30
2023-03-02T16:11:58.751Z,96.32
2023-03-02T16:14:27.839Z,97.06
2023-03-02T16:16:55.538Z,97.18
2023-03-02T16:19:23.306Z,97.11
2023-03-02T16:21:50.929Z,97.59
2023-03-02T16:24:18.625Z,97.63
2023-03-02T16:26:46.308Z,97.60
2023-03-02T16:29:16.038Z,97.93
2023-03-02T16:31:46.995Z,97.96
2023-03-02T16:34:14.746Z,98.51
2023-03-02T16:36:42.851Z,99.03
2023-03-02T16:39:11.750Z,99.98
2023-03-02T16:41:42.927Z,99.88
2023-03-02T16:44:13.434Z,100.00
2023-03-02T16:46:43.342Z,100.00
2023-03-02T16:49:13.286Z,100.00
2023-03-02T16:51:43.041Z,100.00
2023-03-02T16:54:12.180Z,100.00
2023-03-02T16:56:41.769Z,100.00
2023-03-02T16:59:09.467Z,100.00
2023-03-02T17:01:37.101Z,100.00
2023-03-02T17:04:06.023Z,100.00
2023-03-02T17:06:35.778Z,100.00
2023-03-02T17:09:05.252Z,100.00
2023-03-02T17:11:33.175Z,100.00
2023-03-02T17:14:00.840Z,100.00
2023-03-02T17:16:28.444Z,100.00
2023-03-02T17:18:56.086Z,100.00
2023-03-02T17:21:25.013Z,100.00
2023-03-02T17:23:54.359Z,100.00
2023-03-02T17:26:21.981Z,100.00
2023-03-02T17:28:49.625Z,100.00
2023-03-02T17:31:17.497Z,100.00
2023-03-02T17:33:45.150Z,100.00
2023-03-02T17:36:15.355Z,100.00
2023-03-02T17:38:43.236Z,100.00
2023-03-02T17:41:12.690Z,100.00
2023-03-02T17:43:42.876Z,100.00
2023-03-02T17:46:20.510Z,100.00
2023-03-02T17:48:50.481Z,100.00
2023-03-02T17:51:19.192Z,100.00
2023-03-02T17:53:48.923Z,100.00
2023-03-02T17:56:22.050Z,100.00
2023-03-02T17:58:53.983Z,100.00
2023-03-02T18:01:21.698Z,100.00
2023-03-02T18:03:49.470Z,100.00
2023-03-02T18:06:20.421Z,100.00
2023-03-02T18:08:48.743Z,100.00
2023-03-02T18:11:20.282Z,100.00
2023-03-02T18:13:48.940Z,100.00
2023-03-02T18:16:16.792Z,100.00
2023-03-02T18:18:44.453Z,100.00
2023-03-02T18:21:12.098Z,100.00
2023-03-02T18:23:41.945Z,100.00
2023-03-02T18:26:10.004Z,100.00
2023-03-02T18:28:39.493Z,100.00
2023-03-02T18:31:07.849Z,100.00
2023-03-02T18:33:42.227Z,100.00
2023-03-02T18:36:10.709Z,100.00
2023-03-02T18:38:38.851Z,100.00
2023-03-02T18:41:08.616Z,100.00
2023-03-02T18:43:43.225Z,100.00
2023-03-02T18:46:22.208Z,100.00
2023-03-02T18:48:50.960Z,100.00
2023-03-02T18:51:19.061Z,100.00
2023-03-02T18:53:47.356Z,100.00
2023-03-02T18:56:15.508Z,100.00
2023-03-02T18:58:44.936Z,100.00
2023-03-02T19:01:13.149Z,100.00
2023-03-02T19:03:41.852Z,100.00
2023-03-02T19:06:10.066Z,100.00
2023-03-02T19:08:38.104Z,100.00
2023-03-02T19:11:08.644Z,100.00
2023-03-02T19:13:36.450Z,100.00
2023-03-02T19:16:06.289Z,100.00
2023-03-02T19:18:34.394Z,100.00
2023-03-02T19:21:04.300Z,100.00
2023-03-02T19:23:31.948Z,100.00
2023-03-02T19:26:00.493Z,100.00
2023-03-02T19:28:28.515Z,100.00
2023-03-02T19:30:56.129Z,100.00
2023-03-02T19:33:27.061Z,100.00
2023-03-02T19:35:54.927Z,100.00
2023-03-02T19:38:23.942Z,100.00
2023-03-02T19:40:51.683Z,100.00
2023-03-02T19:43:20.350Z,100.00
2023-03-02T19:45:48.198Z,100.00
2023-03-02T19:48:15.891Z,100.00
2023-03-02T19:50:45.488Z,100.00
2023-03-02T19:53:13.732Z,100.00
2023-03-02T19:55:42.673Z,100.00
2023-03-02T19:58:16.675Z,100.00
2023-03-02T20:00:45.352Z,100.00
2023-03-02T20:03:13.154Z,100.00
2023-03-02T20:05:41.170Z,100.00
2023-03-02T20:08:10.316Z,100.00
2023-03-02T20:10:40.702Z,100.00
2023-03-02T20:13:08.622Z,100.00
2023-03-02T20:15:39.799Z,100.00
2023-03-02T20:18:08.706Z,100.00
2023-03-02T20:20:36.710Z,100.00
2023-03-02T20:23:04.676Z,100.00
2023-03-02T20:25:34.785Z,100.00
2023-03-02T20:28:05.481Z,100.00
2023-03-02T20:30:37.339Z,100.00
2023-03-02T20:33:07.852Z,100.00
2023-03-02T20:35:39.894Z,100.00
2023-03-02T20:38:10.419Z,100.00
2023-03-02T20:40:39.447Z,100.00
2023-03-02T20:43:07.263Z,100.00
2023-03-02T20:45:35.761Z,100.00
2023-03-02T20:48:04.301Z,100.00
2023-03-02T20:50:35.004Z,100.00
2023-03-02T20:53:03.058Z,100.00
2023-03-02T20:55:31.203Z,100.00
2023-03-02T20:58:01.079Z,100.00
2023-03-02T21:00:30.883Z,100.00
2023-03-02T21:02:59.115Z,100.00
2023-03-02T21:05:27.998Z,100.00
2023-03-02T21:07:56.878Z,100.00
2023-03-02T21:10:28.134Z,100.00
2023-03-02T21:12:56.132Z,100.00
2023-03-02T21:15:27.144Z,100.00
2023-03-02T21:17:56.032Z,100.00
2023-03-02T21:20:25.909Z,100.00
2023-03-02T21:22:53.578Z,100.00
2023-03-02T21:25:21.475Z,100.00
2023-03-02T21:27:49.223Z,100.00
2023-03-02T21:30:19.747Z,100.00
2023-03-02T21:32:49.550Z,100.00
2023-03-02T21:35:19.904Z,100.00
2023-03-02T21:37:49.321Z,100.00
2023-03-02T21:40:19.915Z,100.00
2023-03-02T21:42:47.790Z,100.00
2023-03-02T21:45:15.489Z,100.00
2023-03-02T21:47:46.346Z,100.00
2023-03-02T21:50:17.937Z,100.00
2023-03-02T21:52:45.819Z,100.00
2023-03-02T21:55:18.932Z,100.00
2023-03-02T21:57:49.725Z,100.00
2023-03-02T22:00:22.834Z,100.00
2023-03-02T22:02:54.395Z,100.00
2023-03-02T22:05:28.053Z,100.00
2023-03-02T22:07:56.080Z,100.00
2023-03-02T22:10:27.777Z,100.00
2023-03-02T22:12:58.459Z,100.00
2023-03-02T22:15:27.936Z,100.00
2023-03-02T22:17:58.028Z,100.00
2023-03-02T22:20:27.413Z,100.00
2023-03-02T22:22:55.623Z,100.00
2023-03-02T22:25:24.617Z,100.00
2023-03-02T22:27:52.598Z,100.00
2023-03-02T22:30:22.709Z,100.00
2023-03-02T22:32:51.020Z,100.00
2023-03-02T22:35:25.462Z,100.00
2023-03-02T22:38:03.162Z,100.00
2023-03-02T22:40:33.802Z,100.00
2023-03-02T22:43:14.890Z,100.00
2023-03-02T22:45:42.924Z,100.00
2023-03-02T22:48:16.594Z,100.00
2023-03-02T22:50:45.654Z,100.00
2023-03-02T22:53:39.146Z,100.00
2023-03-02T22:56:26.888Z,100.00
2023-03-02T22:58:55.146Z,100.00
2023-03-02T23:01:24.854Z,100.00
2023-03-02T23:03:54.686Z,100.00
2023-03-02T23:06:28.604Z,100.00
2023-03-02T23:08:59.423Z,100.00
2023-03-02T23:11:27.804Z,100.00
2023-03-02T23:13:55.870Z,100.00
2023-03-02T23:16:25.197Z,100.00
2023-03-02T23:18:54.945Z,100.00
2023-03-02T23:21:28.258Z,100.00
2023-03-02T23:23:57.557Z,100.00
2023-03-02T23:26:25.192Z,100.00
2023-03-02T23:28:52.851Z,100.00
2023-03-02T23:31:21.198Z,100.00
2023-03-02T23:33:49.433Z,100.00
2023-03-02T23:36:17.136Z,100.00
2023-03-02T23:38:44.841Z,100.00
2023-03-02T23:41:13.759Z,100.00
2023-03-02T23:43:41.666Z,100.00
2023-03-02T23:46:13.883Z,100.00
2023-03-02T23:48:42.000Z,100.00
2023-03-02T23:51:09.951Z,100.00
2023-03-02T23:53:37.646Z,100.00
2023-03-02T23:56:05.851Z,100.00
2023-03-02T23:58:34.861Z,100.00
